Mae Sot Airport
VTPM : now visible

Airfield :











YOU CAN JOIN US ON...

 
LOGIN :

Register | Disclaimer

   EN    FR    IT 

 









Legend :    VFR   Marginal VFR   IFR   Intensive IFR   Very Intensive IFR
Visi :
Ceiling :
>= 8 km
>= 3000ft
5 to 8 km
1000 to 3000 ft
1500m to 5 km
500 to 1000 ft
800 to 1500m
200 to 500 ft
< 800m
< 200 ft
Symbols :   Thunderstorms  Fog  Heavy snow  Heavy precipitations  Wind > 20 kt






- Airport Elevation : 690 ft
- IATA code : MAQ


VTPM - Mae Sot

CURRENT METAR :
  • 271000Z 04005KT 7000 -RA BKN025 BKN080 25/23 Q1006 RERA NOSIG

EXPIRED METARs :
  • 270900Z 33005KT 300V010 9999 VCSH FEW025CB SCT030 29/24 Q1005 TEMPO 4000 RA
  • 270800Z 25005KT 210V300 9999 SCT030 30/24 Q1005 NOSIG

TAF TAF VTPM
Valid from the 27 at 06:00 until the 28 at 06:00 UTC


270500Z 2706/2806 34005KT 9999 SCT025
BECMG 2707/2709 17005KT
VTBB FIR / Asia



MET'MAP, your aeronautical weather chart ! - Copyright ORBIFLY December 2007 - Disclaimer

ORBIFLY MET'MAP TEAM :

Programming & Development : Alexandra Zaïnal
Original concept : Baudouin d'Aumeries
Technical & hardware support : Manuel Goepfert
Assistance : Marc-Olivier Méhu




SOURCES & CREDITS :

   NOAA       Earth
Advisory